Time;durP1;ratioP1;P1;durP2;ratioP2;P2;SDS_P1;SDS_P2;PMS_P1;PMS_P2;Temp;Humidity;BMP_temperature;BMP_pressure;BME280_temperature;BME280_humidity;BME280_pressure;Samples;Min_cycle;Max_cycle;Signal;HPM_P1;HPM_P2
2023/07/18 00:00:00;;;;;;;;;;;;;;;8.61;100.00;100209.84;4945723;29;19923;-87
2023/07/18 00:02:26;;;;;;;;;;;;;;;8.63;100.00;100214.19;4913803;29;20009;-85
2023/07/18 07:51:29;;;;;;;;;;;;;;;8.41;100.00;100014.94;5051879;28;19932;-89
2023/07/18 07:53:58;;;;;;;;;;;;;;;8.42;100.00;100017.53;5043283;28;19932;-90
2023/07/18 07:56:23;;;;;;;;;;;;;;;8.54;100.00;100018.97;5030059;28;19924;-86
2023/07/18 07:58:49;;;;;;;;;;;;;;;8.53;100.00;100014.59;5035389;28;19954;-87
2023/07/18 08:01:14;;;;;;;;;;;;;;;8.53;100.00;100010.16;5030849;28;20379;-89
2023/07/18 08:03:39;;;;;;;;;;;;;;;8.49;100.00;100003.28;5049777;28;20363;-83
2023/07/18 08:06:04;;;;;;;;;;;;;;;8.81;100.00;100000.53;5031960;28;19928;-81
2023/07/18 08:08:30;;;;;;;;;;;;;;;13.66;100.00;99962.47;5047226;28;19991;-85
2023/07/18 08:10:55;;;;;;;;;;;;;;;12.36;100.00;99971.53;5045814;28;20346;-84
2023/07/18 08:13:20;;;;;;;;;;;;;;;9.43;100.00;99984.34;5046990;28;19925;-88
2023/07/18 08:15:46;;;;;;;;;;;;;;;8.38;100.00;99986.88;5045645;28;20329;-84
2023/07/18 08:18:11;;;;;;;;;;;;;;;7.95;100.00;99975.81;5047280;28;19975;-84
2023/07/18 08:20:36;;;;;;;;;;;;;;;17.48;100.00;99960.78;5051407;28;20931;-88
2023/07/18 08:23:02;;;;;;;;;;;;;;;20.51;100.00;99926.47;5039215;28;19948;-90
2023/07/18 08:25:27;;;;;;;;;;;;;;;15.49;100.00;99924.59;5050867;28;19924;-92
2023/07/18 08:27:52;;;;;;;;;;;;;;;9.86;100.00;99944.00;5051295;28;19921;-89
2023/07/18 08:30:19;;;;;;;;;;;;;;;8.59;100.00;99947.53;5040174;28;19924;-93
2023/07/18 08:32:45;;;;;;;;;;;;;;;8.01;100.00;99935.19;5045266;28;19925;-91
2023/07/18 08:35:10;;;;;;;;;;;;;;;7.78;100.00;99944.63;5054373;28;19921;-86
2023/07/18 08:37:35;;;;;;;;;;;;;;;7.41;100.00;99945.66;5054178;28;20368;-92
2023/07/18 08:40:02;;;;;;;;;;;;;;;7.24;100.00;99955.78;5046469;28;19967;-88
2023/07/18 08:42:28;;;;;;;;;;;;;;;7.17;100.00;99934.00;5042407;28;19971;-89
2023/07/18 08:44:54;;;;;;;;;;;;;;;6.94;100.00;99916.19;5047664;28;20414;-93
2023/07/18 08:47:21;;;;;;;;;;;;;;;6.79;100.00;99914.78;5055547;28;19978;-87
2023/07/18 08:49:46;;;;;;;;;;;;;;;6.72;100.00;99916.72;5040331;28;19921;-86
2023/07/18 08:52:11;;;;;;;;;;;;;;;6.54;100.00;99920.69;5045734;28;19920;-95
2023/07/18 08:54:37;;;;;;;;;;;;;;;6.52;100.00;99947.94;5038235;28;20406;-92
2023/07/18 08:57:03;;;;;;;;;;;;;;;6.36;100.00;99953.53;5041291;28;19921;-94
2023/07/18 08:59:28;;;;;;;;;;;;;;;6.32;100.00;99962.44;5057467;28;19925;-88
2023/07/18 09:01:54;;;;;;;;;;;;;;;6.42;100.00;99972.75;5039993;28;19929;-86
2023/07/18 09:04:19;;;;;;;;;;;;;;;6.22;100.00;99968.78;5040136;28;19979;-88
2023/07/18 09:07:00;;;;;;;;;;;;;;;6.21;100.00;99974.06;5042739;28;19925;-87
2023/07/18 09:09:25;;;;;;;;;;;;;;;6.06;100.00;99988.44;5040307;28;20011;-84
2023/07/18 09:11:58;;;;;;;;;;;;;;;6.04;100.00;99993.72;5052037;28;20001;-89
2023/07/18 09:14:24;;;;;;;;;;;;;;;5.99;100.00;99996.44;5044273;28;19921;-91
2023/07/18 09:16:49;;;;;;;;;;;;;;;5.97;100.00;100011.41;5039714;28;20003;-86
2023/07/18 09:19:14;;;;;;;;;;;;;;;5.91;100.00;100003.59;5050628;28;20015;-87
2023/07/18 09:21:40;;;;;;;;;;;;;;;5.91;100.00;100002.75;5041708;28;19964;-86
2023/07/18 09:24:05;;;;;;;;;;;;;;;5.84;100.00;99996.75;5038424;28;19959;-87
2023/07/18 09:26:30;;;;;;;;;;;;;;;5.80;100.00;99990.66;5035536;28;19925;-84
2023/07/18 09:28:56;;;;;;;;;;;;;;;5.71;100.00;99992.63;5042834;28;19966;-87
2023/07/18 09:31:23;;;;;;;;;;;;;;;5.75;100.00;99987.28;5042818;28;19916;-84
2023/07/18 09:33:49;;;;;;;;;;;;;;;5.65;100.00;99980.47;5041329;28;19921;-90
2023/07/18 09:36:21;;;;;;;;;;;;;;;5.59;100.00;99970.06;5049606;28;19924;-88
2023/07/18 09:38:48;;;;;;;;;;;;;;;5.53;100.00;99970.19;5042118;28;19928;-85
2023/07/18 09:41:17;;;;;;;;;;;;;;;5.44;100.00;99958.97;5039935;28;19921;-87
2023/07/18 09:43:43;;;;;;;;;;;;;;;5.48;100.00;99957.13;5039379;28;20386;-87
2023/07/18 09:46:10;;;;;;;;;;;;;;;5.49;100.00;99956.25;5038925;28;20063;-86
2023/07/18 09:48:37;;;;;;;;;;;;;;;5.40;100.00;99956.41;5039480;28;19925;-89
2023/07/18 09:51:03;;;;;;;;;;;;;;;5.38;100.00;99945.94;5042692;28;19925;-88
2023/07/18 09:53:30;;;;;;;;;;;;;;;5.31;100.00;99930.31;5039611;28;19921;-86
2023/07/18 09:55:56;;;;;;;;;;;;;;;5.38;100.00;99924.06;5036765;28;20407;-91
2023/07/18 09:58:25;;;;;;;;;;;;;;;6.10;100.00;99930.47;5049447;28;20375;-83
2023/07/18 10:00:51;;;;;;;;;;;;;;;6.44;100.00;99923.56;5051116;28;20015;-90
2023/07/18 10:03:17;;;;;;;;;;;;;;;6.58;100.00;99918.81;5032708;28;20007;-90
2023/07/18 10:05:43;;;;;;;;;;;;;;;6.71;100.00;99906.22;5039264;28;19967;-90
2023/07/18 10:08:08;;;;;;;;;;;;;;;6.77;100.00;99906.06;5038635;28;19921;-90
2023/07/18 10:10:34;;;;;;;;;;;;;;;6.90;100.00;99917.16;5041434;28;19971;-88
2023/07/18 10:13:00;;;;;;;;;;;;;;;6.95;100.00;99903.88;5042173;28;19916;-84
2023/07/18 10:15:26;;;;;;;;;;;;;;;6.96;100.00;99901.19;5042323;28;20441;-87
2023/07/18 10:17:51;;;;;;;;;;;;;;;6.98;100.00;99891.47;5037587;28;19920;-86
2023/07/18 10:20:23;;;;;;;;;;;;;;;7.07;100.00;99893.03;5039931;28;19920;-91
2023/07/18 10:22:48;;;;;;;;;;;;;;;7.06;100.00;99886.88;5054256;28;20417;-87
2023/07/18 10:25:16;;;;;;;;;;;;;;;7.12;100.00;99891.13;5042547;28;19916;-93
2023/07/18 10:27:43;;;;;;;;;;;;;;;10.41;100.00;99873.03;5040037;28;19920;-86
2023/07/18 10:30:08;;;;;;;;;;;;;;;7.80;100.00;99884.78;5052131;28;19917;-89
2023/07/18 10:32:35;;;;;;;;;;;;;;;7.49;100.00;99883.97;5041251;28;19920;-86
2023/07/18 10:35:04;;;;;;;;;;;;;;;7.45;100.00;99886.69;5040063;28;19917;-86
2023/07/18 10:37:30;;;;;;;;;;;;;;;7.46;100.00;99885.75;5041644;28;20279;-85
2023/07/18 10:39:56;;;;;;;;;;;;;;;7.43;100.00;99893.75;5052158;28;19917;-85
2023/07/18 10:42:24;;;;;;;;;;;;;;;7.44;100.00;99882.31;5041240;28;20002;-85
2023/07/18 10:44:56;;;;;;;;;;;;;;;7.46;100.00;99864.66;5042591;28;20062;-86
2023/07/18 10:47:21;;;;;;;;;;;;;;;7.42;100.00;99851.63;5043359;28;20451;-88
2023/07/18 10:49:49;;;;;;;;;;;;;;;7.46;100.00;99851.47;5041168;28;20086;-89
2023/07/18 10:52:15;;;;;;;;;;;;;;;7.43;100.00;99842.81;5052145;28;20079;-88
2023/07/18 10:54:47;;;;;;;;;;;;;;;7.48;100.00;99840.03;5040266;28;20394;-88
2023/07/18 10:57:13;;;;;;;;;;;;;;;7.50;100.00;99833.81;5052768;28;20372;-90
2023/07/18 10:59:41;;;;;;;;;;;;;;;7.49;100.00;99826.81;5045248;28;20435;-91
2023/07/18 11:02:06;;;;;;;;;;;;;;;7.50;100.00;99828.56;5047338;28;19927;-86
2023/07/18 11:04:32;;;;;;;;;;;;;;;7.53;100.00;99822.31;5044759;28;19917;-91
2023/07/18 11:06:59;;;;;;;;;;;;;;;7.52;100.00;99825.88;5048268;28;20002;-88
2023/07/18 11:09:24;;;;;;;;;;;;;;;7.58;100.00;99821.28;5045301;28;19961;-89
2023/07/18 11:11:50;;;;;;;;;;;;;;;7.57;100.00;99813.41;5047569;28;19967;-94
2023/07/18 11:14:16;;;;;;;;;;;;;;;7.61;100.00;99807.09;5049085;28;19921;-88
2023/07/18 11:16:41;;;;;;;;;;;;;;;7.67;100.00;99795.53;5040843;28;19920;-85
2023/07/18 11:19:07;;;;;;;;;;;;;;;7.60;100.00;99792.22;5040859;28;19924;-86
2023/07/18 11:21:33;;;;;;;;;;;;;;;7.67;100.00;99787.59;5045598;28;19913;-88
2023/07/18 11:24:01;;;;;;;;;;;;;;;7.76;100.00;99788.19;5044836;28;19917;-91
2023/07/18 11:26:27;;;;;;;;;;;;;;;7.74;100.00;99779.47;5044175;28;20288;-85
2023/07/18 11:28:52;;;;;;;;;;;;;;;7.78;100.00;99772.31;5044408;28;19920;-85
2023/07/18 11:31:31;;;;;;;;;;;;;;;7.78;100.00;99767.03;5042260;28;19925;-88
2023/07/18 11:33:57;;;;;;;;;;;;;;;7.75;100.00;99760.06;5041435;28;19978;-86
2023/07/18 11:36:27;;;;;;;;;;;;;;;7.79;100.00;99751.16;5043290;28;19920;-90
2023/07/18 11:38:52;;;;;;;;;;;;;;;7.82;100.00;99737.88;5038431;28;19920;-89
2023/07/18 11:41:32;;;;;;;;;;;;;;;7.78;100.00;99725.69;5044360;28;20367;-85
2023/07/18 11:43:57;;;;;;;;;;;;;;;7.81;100.00;99711.53;5048485;28;19921;-88
2023/07/18 11:46:36;;;;;;;;;;;;;;;7.87;100.00;99694.66;5051657;28;20336;-86
2023/07/18 11:49:01;;;;;;;;;;;;;;;7.93;100.00;99699.72;5053746;28;19925;-86
2023/07/18 11:51:27;;;;;;;;;;;;;;;7.93;100.00;99699.72;5040980;28;20190;-87
2023/07/18 11:53:53;;;;;;;;;;;;;;;7.90;100.00;99692.78;5052516;28;19991;-89
2023/07/18 11:56:19;;;;;;;;;;;;;;;7.94;100.00;99697.03;5041259;28;19924;-92
2023/07/18 11:58:44;;;;;;;;;;;;;;;8.04;100.00;99688.81;5055938;28;19931;-87
2023/07/18 12:01:09;;;;;;;;;;;;;;;8.05;100.00;99690.53;5055646;28;19913;-87
2023/07/18 12:03:36;;;;;;;;;;;;;;;8.01;100.00;99692.44;5043680;28;19924;-92
2023/07/18 12:06:01;;;;;;;;;;;;;;;8.04;100.00;99694.09;5042845;28;19921;-89
2023/07/18 12:08:27;;;;;;;;;;;;;;;8.11;100.00;99688.53;5048737;28;19943;-92
2023/07/18 12:10:52;;;;;;;;;;;;;;;8.10;100.00;99700.00;5043128;28;19990;-87
2023/07/18 12:13:18;;;;;;;;;;;;;;;8.14;100.00;99696.38;5044630;28;20410;-89
2023/07/18 12:15:43;;;;;;;;;;;;;;;8.20;100.00;99692.66;5041597;28;19925;-86
2023/07/18 12:18:09;;;;;;;;;;;;;;;8.15;100.00;99699.84;5042686;28;19917;-88
2023/07/18 12:20:34;;;;;;;;;;;;;;;8.13;100.00;99694.63;5057436;28;20279;-89
2023/07/18 12:22:59;;;;;;;;;;;;;;;8.16;100.00;99691.03;5054792;28;20020;-89
2023/07/18 12:25:30;;;;;;;;;;;;;;;8.15;100.00;99692.81;5040737;28;19917;-90
2023/07/18 12:27:55;;;;;;;;;;;;;;;8.20;100.00;99690.03;5040914;28;19925;-83
2023/07/18 12:30:21;;;;;;;;;;;;;;;8.22;100.00;99680.25;5042412;28;19929;-87
2023/07/18 12:32:46;;;;;;;;;;;;;;;8.19;100.00;99675.09;5046439;28;19971;-90
2023/07/18 12:35:12;;;;;;;;;;;;;;;8.18;100.00;99674.25;5041629;28;19921;-88
2023/07/18 12:37:38;;;;;;;;;;;;;;;8.22;100.00;99674.09;5052953;28;19917;-86
2023/07/18 12:40:03;;;;;;;;;;;;;;;8.27;100.00;99673.03;5050681;28;19975;-86
2023/07/18 12:42:28;;;;;;;;;;;;;;;8.26;100.00;99670.44;5038317;28;19920;-84
2023/07/18 12:44:53;;;;;;;;;;;;;;;8.28;100.00;99658.06;5037725;28;19927;-89
2023/07/18 12:47:19;;;;;;;;;;;;;;;8.27;100.00;99646.63;5034681;28;19955;-83
2023/07/18 12:49:44;;;;;;;;;;;;;;;8.29;100.00;99643.94;5039400;28;20415;-89
2023/07/18 12:52:09;;;;;;;;;;;;;;;8.44;100.00;99642.56;5036070;28;20292;-85
2023/07/18 12:54:35;;;;;;;;;;;;;;;8.39;100.00;99639.19;5035207;28;19925;-85
2023/07/18 12:57:01;;;;;;;;;;;;;;;8.36;100.00;99634.91;5034965;28;19981;-89
2023/07/18 12:59:27;;;;;;;;;;;;;;;8.39;100.00;99631.28;5035216;28;20821;-85
2023/07/18 13:01:53;;;;;;;;;;;;;;;8.36;100.00;99629.63;5037586;28;19936;-85
2023/07/18 13:04:18;;;;;;;;;;;;;;;8.36;100.00;99640.19;5026667;28;19917;-88
2023/07/18 13:06:43;;;;;;;;;;;;;;;8.37;100.00;99641.88;5035570;28;19920;-84
2023/07/18 13:09:08;;;;;;;;;;;;;;;8.36;100.00;99637.53;5049560;28;19920;-89
2023/07/18 13:11:34;;;;;;;;;;;;;;;8.35;100.00;99633.16;5035440;28;20006;-85
2023/07/18 13:13:59;;;;;;;;;;;;;;;8.37;100.00;99628.69;5034648;28;19921;-86
2023/07/18 13:16:24;;;;;;;;;;;;;;;8.37;100.00;99626.03;5053218;28;19995;-87
2023/07/18 13:18:50;;;;;;;;;;;;;;;8.38;100.00;99614.59;5052111;28;19926;-87
2023/07/18 13:21:15;;;;;;;;;;;;;;;19.05;100.00;99580.84;5053305;28;19930;-81
2023/07/18 13:23:40;;;;;;;;;;;;;;;17.84;100.00;99573.31;5052727;28;19917;-81
2023/07/18 13:26:06;;;;;;;;;;;;;;;11.89;100.00;99597.59;5035188;28;19975;-87
2023/07/18 13:28:32;;;;;;;;;;;;;;;9.37;100.00;99616.13;5046713;28;19963;-89
2023/07/18 13:30:57;;;;;;;;;;;;;;;8.55;100.00;99616.63;5031268;28;19960;-86
2023/07/18 13:33:22;;;;;;;;;;;;;;;8.05;100.00;99612.22;5033945;28;19999;-87
2023/07/18 13:35:47;;;;;;;;;;;;;;;7.64;100.00;99617.13;5034323;28;19917;-86
2023/07/18 13:38:13;;;;;;;;;;;;;;;7.39;100.00;99610.06;5049777;28;20375;-88
2023/07/18 13:40:38;;;;;;;;;;;;;;;7.22;100.00;99622.91;5034618;28;20335;-85
2023/07/18 13:43:03;;;;;;;;;;;;;;;7.02;100.00;99616.50;5034236;28;19948;-88
2023/07/18 13:45:29;;;;;;;;;;;;;;;6.89;100.00;99615.13;5034733;28;19924;-84
2023/07/18 13:47:54;;;;;;;;;;;;;;;6.80;100.00;99602.28;5051660;28;19968;-87
2023/07/18 13:50:19;;;;;;;;;;;;;;;6.65;100.00;99607.09;5052434;28;19932;-86
2023/07/18 13:52:45;;;;;;;;;;;;;;;6.66;100.00;99602.69;5033189;28;19936;-87
2023/07/18 13:55:11;;;;;;;;;;;;;;;6.57;100.00;99592.41;5053384;28;19917;-90
2023/07/18 13:57:36;;;;;;;;;;;;;;;6.41;100.00;99595.47;5034071;28;20363;-89
2023/07/18 14:00:02;;;;;;;;;;;;;;;6.40;100.00;99598.16;5051404;28;19928;-90
2023/07/18 14:02:28;;;;;;;;;;;;;;;6.37;100.00;99593.84;5034649;28;19925;-86
2023/07/18 14:04:53;;;;;;;;;;;;;;;6.27;100.00;99590.63;5034169;28;20279;-88
2023/07/18 14:07:18;;;;;;;;;;;;;;;6.23;100.00;99591.59;5053458;28;19917;-87
2023/07/18 14:09:43;;;;;;;;;;;;;;;6.19;100.00;99584.72;5053146;28;20005;-88
2023/07/18 14:12:10;;;;;;;;;;;;;;;6.35;100.00;99574.59;5035435;28;20283;-89
2023/07/18 14:14:35;;;;;;;;;;;;;;;6.17;100.00;99574.25;5049008;28;19931;-88
2023/07/18 14:17:00;;;;;;;;;;;;;;;6.14;100.00;99568.19;5033714;28;19921;-89
2023/07/18 14:19:26;;;;;;;;;;;;;;;6.11;100.00;99560.38;5031982;28;19968;-89
2023/07/18 14:21:51;;;;;;;;;;;;;;;5.97;100.00;99550.25;5034009;28;19921;-90
2023/07/18 14:24:16;;;;;;;;;;;;;;;5.81;100.00;99549.78;5032205;28;19927;-88
2023/07/18 14:26:43;;;;;;;;;;;;;;;5.77;100.00;99537.63;5034298;28;20015;-90
2023/07/18 14:29:08;;;;;;;;;;;;;;;5.74;100.00;99532.44;5030210;28;20393;-87
2023/07/18 14:31:34;;;;;;;;;;;;;;;5.73;100.00;99526.31;5051126;28;20011;-90
2023/07/18 14:33:59;;;;;;;;;;;;;;;5.64;100.00;99524.78;5031598;28;20751;-87
2023/07/18 14:36:25;;;;;;;;;;;;;;;5.62;100.00;99517.88;5033386;28;19928;-89
2023/07/18 14:38:50;;;;;;;;;;;;;;;5.59;100.00;99517.94;5033628;28;19971;-86
2023/07/18 14:41:16;;;;;;;;;;;;;;;5.55;100.00;99519.81;5027320;28;19960;-83
2023/07/18 14:43:41;;;;;;;;;;;;;;;5.50;100.00;99511.16;5032905;28;20185;-89
2023/07/18 14:46:06;;;;;;;;;;;;;;;5.48;100.00;99501.59;5033567;28;19917;-85
2023/07/18 14:48:32;;;;;;;;;;;;;;;5.50;100.00;99507.69;5047355;28;20396;-85
2023/07/18 14:50:57;;;;;;;;;;;;;;;5.99;100.00;99504.59;5044950;28;20393;-86
2023/07/18 14:53:22;;;;;;;;;;;;;;;7.40;100.00;99495.81;5043104;28;19962;-88
2023/07/18 14:55:48;;;;;;;;;;;;;;;7.18;100.00;99494.78;5048892;28;19920;-88
2023/07/18 14:58:13;;;;;;;;;;;;;;;7.06;100.00;99496.91;5038459;28;19933;-86
2023/07/18 15:00:39;;;;;;;;;;;;;;;6.58;100.00;99494.09;5030056;28;19932;-86
2023/07/18 15:03:04;;;;;;;;;;;;;;;6.34;100.00;99488.69;5028520;28;20629;-88
2023/07/18 15:05:30;;;;;;;;;;;;;;;6.20;100.00;99489.09;5027912;28;19974;-87
2023/07/18 15:07:55;;;;;;;;;;;;;;;6.15;100.00;99483.09;5032090;28;20408;-86
2023/07/18 15:10:20;;;;;;;;;;;;;;;6.10;100.00;99483.25;5032002;28;19928;-86
2023/07/18 15:12:47;;;;;;;;;;;;;;;6.11;100.00;99476.19;5033766;28;19925;-85
2023/07/18 15:15:13;;;;;;;;;;;;;;;6.02;100.00;99473.88;5037158;28;19947;-88
2023/07/18 15:17:48;;;;;;;;;;;;;;;6.05;100.00;99473.75;5030461;28;19935;-88
2023/07/18 15:20:14;;;;;;;;;;;;;;;5.97;100.00;99466.94;5045149;28;19932;-88
2023/07/18 15:22:39;;;;;;;;;;;;;;;5.99;100.00;99469.53;5039095;28;20334;-85
2023/07/18 15:25:05;;;;;;;;;;;;;;;5.93;100.00;99462.66;5047423;28;19935;-86
2023/07/18 15:27:34;;;;;;;;;;;;;;;5.92;100.00;99463.56;5026615;28;20024;-85
2023/07/18 15:30:00;;;;;;;;;;;;;;;5.85;100.00;99459.38;5037614;28;20035;-87
2023/07/18 15:32:25;;;;;;;;;;;;;;;5.86;100.00;99450.59;5040281;28;19940;-87
2023/07/18 15:34:50;;;;;;;;;;;;;;;5.91;100.00;99451.31;5040144;28;19924;-87
2023/07/18 15:37:16;;;;;;;;;;;;;;;5.83;100.00;99448.91;5041223;28;19923;-89
2023/07/18 15:39:41;;;;;;;;;;;;;;;5.86;100.00;99449.75;5036783;28;19921;-90
2023/07/18 15:42:06;;;;;;;;;;;;;;;5.80;100.00;99449.00;5040220;28;19923;-87
2023/07/18 15:44:32;;;;;;;;;;;;;;;5.74;100.00;99448.31;5042255;28;19917;-84
2023/07/18 15:46:58;;;;;;;;;;;;;;;5.72;100.00;99439.63;5037573;28;19920;-87
2023/07/18 15:49:23;;;;;;;;;;;;;;;5.73;100.00;99438.72;5047998;28;19913;-90
2023/07/18 15:51:49;;;;;;;;;;;;;;;5.77;100.00;99440.34;5059398;28;19924;-87
2023/07/18 15:54:14;;;;;;;;;;;;;;;5.65;100.00;99436.31;5036650;28;20000;-88
2023/07/18 15:56:42;;;;;;;;;;;;;;;5.70;100.00;99428.28;5063880;28;20363;-91
2023/07/18 15:59:10;;;;;;;;;;;;;;;5.71;100.00;99435.25;5046613;28;20431;-89
2023/07/18 16:01:35;;;;;;;;;;;;;;;5.61;100.00;99430.25;5063317;28;19924;-89
2023/07/18 16:04:01;;;;;;;;;;;;;;;5.64;100.00;99422.28;5057378;28;19921;-90
2023/07/18 16:06:26;;;;;;;;;;;;;;;5.62;100.00;99418.00;5058078;28;19921;-89
2023/07/18 16:08:51;;;;;;;;;;;;;;;5.96;100.00;99423.13;5038381;28;19916;-84
2023/07/18 16:11:16;;;;;;;;;;;;;;;6.40;100.00;99422.69;5053388;28;19967;-90
2023/07/18 16:13:50;;;;;;;;;;;;;;;6.67;100.00;99415.69;5059886;28;20264;-89
2023/07/18 16:16:16;;;;;;;;;;;;;;;6.76;100.00;99417.16;5056086;28;19931;-88
2023/07/18 16:18:51;;;;;;;;;;;;;;;6.81;100.00;99417.88;5057850;28;19921;-88
2023/07/18 16:21:17;;;;;;;;;;;;;;;6.97;100.00;99414.72;5054344;28;20376;-89
2023/07/18 16:23:42;;;;;;;;;;;;;;;7.13;100.00;99413.25;5058420;28;19921;-87
2023/07/18 16:26:08;;;;;;;;;;;;;;;7.30;100.00;99409.19;5038728;28;19920;-87
2023/07/18 16:28:33;;;;;;;;;;;;;;;7.36;100.00;99407.19;5062017;28;19921;-87
2023/07/18 16:30:58;;;;;;;;;;;;;;;7.33;100.00;99409.94;5064365;28;19923;-87
2023/07/18 16:33:24;;;;;;;;;;;;;;;7.40;100.00;99400.91;5036129;28;20015;-87
2023/07/18 16:35:49;;;;;;;;;;;;;;;7.52;100.00;99393.47;5060575;28;19956;-83
2023/07/18 16:38:14;;;;;;;;;;;;;;;7.54;100.00;99391.63;5046033;28;19916;-87
2023/07/18 16:40:39;;;;;;;;;;;;;;;7.53;100.00;99384.63;5037397;28;19921;-89
2023/07/18 16:43:06;;;;;;;;;;;;;;;7.62;100.00;99381.66;5043018;28;19920;-87
2023/07/18 16:45:34;;;;;;;;;;;;;;;7.53;100.00;99379.34;5041140;28;19921;-85
2023/07/18 16:47:59;;;;;;;;;;;;;;;7.57;100.00;99376.53;5034720;28;19921;-86
2023/07/18 16:50:25;;;;;;;;;;;;;;;7.67;100.00;99371.78;5055644;28;20023;-84
2023/07/18 16:52:50;;;;;;;;;;;;;;;7.73;100.00;99371.56;5043321;28;19956;-85
2023/07/18 16:55:15;;;;;;;;;;;;;;;7.65;100.00;99363.09;5052997;28;20007;-88
2023/07/18 16:57:41;;;;;;;;;;;;;;;7.77;100.00;99361.75;5053089;28;19968;-89
2023/07/18 17:00:06;;;;;;;;;;;;;;;7.77;100.00;99367.91;5053863;28;20114;-86
2023/07/18 17:02:32;;;;;;;;;;;;;;;7.73;100.00;99366.28;5052567;28;19932;-88
2023/07/18 17:04:57;;;;;;;;;;;;;;;7.79;100.00;99370.47;5041781;28;19982;-91
2023/07/18 17:07:23;;;;;;;;;;;;;;;7.80;100.00;99365.16;5053531;28;19920;-91
2023/07/18 17:09:48;;;;;;;;;;;;;;;7.95;100.00;99365.47;5053874;28;19917;-85
2023/07/18 17:12:13;;;;;;;;;;;;;;;7.83;100.00;99358.88;5053550;28;20279;-88
2023/07/18 17:14:39;;;;;;;;;;;;;;;7.87;100.00;99357.00;5042708;28;19917;-91
2023/07/18 17:17:04;;;;;;;;;;;;;;;7.94;100.00;99358.47;5053380;28;19979;-88
2023/07/18 17:19:29;;;;;;;;;;;;;;;7.94;100.00;99353.19;5051046;28;20364;-90
2023/07/18 17:21:55;;;;;;;;;;;;;;;7.92;100.00;99355.03;5039828;28;19924;-90
2023/07/18 17:24:20;;;;;;;;;;;;;;;7.89;100.00;99357.78;5041315;28;20364;-90
2023/07/18 17:26:45;;;;;;;;;;;;;;;7.98;100.00;99368.84;5037368;28;19925;-89
2023/07/18 17:29:11;;;;;;;;;;;;;;;8.07;100.00;99358.84;5043643;28;19919;-85
2023/07/18 17:31:36;;;;;;;;;;;;;;;8.03;100.00;99357.28;5042236;28;19924;-85
2023/07/18 17:34:04;;;;;;;;;;;;;;;8.18;100.00;99361.91;5042366;28;19916;-90
2023/07/18 17:36:29;;;;;;;;;;;;;;;8.41;100.00;99360.13;5042901;28;19970;-87
2023/07/18 17:38:55;;;;;;;;;;;;;;;8.02;100.00;99359.03;5053358;28;19929;-87
2023/07/18 17:41:20;;;;;;;;;;;;;;;7.91;100.00;99353.31;5052517;28;19913;-86
2023/07/18 17:43:47;;;;;;;;;;;;;;;7.78;100.00;99359.06;5049946;28;19928;-88
2023/07/18 17:46:12;;;;;;;;;;;;;;;7.79;100.00;99354.66;5040977;28;19917;-87
2023/07/18 17:48:38;;;;;;;;;;;;;;;7.87;100.00;99372.84;5041247;28;19966;-87
2023/07/18 17:51:06;;;;;;;;;;;;;;;7.78;100.00;99376.66;5041050;28;20043;-87
2023/07/18 17:53:31;;;;;;;;;;;;;;;7.91;100.00;99379.69;5061397;28;19924;-87
2023/07/18 17:55:57;;;;;;;;;;;;;;;7.84;100.00;99388.78;5059935;28;19925;-88
2023/07/18 17:58:22;;;;;;;;;;;;;;;7.87;100.00;99409.75;5061735;28;20022;-88
2023/07/18 18:00:48;;;;;;;;;;;;;;;7.86;100.00;99410.66;5044511;28;19921;-88
2023/07/18 18:03:13;;;;;;;;;;;;;;;7.97;100.00;99411.13;5042707;28;20734;-88
2023/07/18 18:05:45;;;;;;;;;;;;;;;7.88;100.00;99419.38;5044468;28;19917;-86
2023/07/18 18:08:11;;;;;;;;;;;;;;;7.89;100.00;99405.28;5061276;28;20011;-86
2023/07/18 18:10:36;;;;;;;;;;;;;;;7.99;100.00;99401.34;5043876;28;20019;-87
2023/07/18 18:13:01;;;;;;;;;;;;;;;7.89;100.00;99400.00;5044274;28;20019;-87
2023/07/18 18:15:27;;;;;;;;;;;;;;;7.99;100.00;99389.03;5044466;28;19920;-86
2023/07/18 18:17:52;;;;;;;;;;;;;;;7.93;100.00;99381.38;5042293;28;20368;-87
2023/07/18 18:20:19;;;;;;;;;;;;;;;8.03;100.00;99387.13;5044422;28;20399;-86
2023/07/18 18:22:47;;;;;;;;;;;;;;;8.12;100.00;99381.50;5042733;28;20583;-86
2023/07/18 18:25:13;;;;;;;;;;;;;;;8.03;100.00;99381.88;5054908;28;19920;-86
2023/07/18 18:27:39;;;;;;;;;;;;;;;8.14;100.00;99373.53;5043372;28;20003;-86
2023/07/18 18:30:07;;;;;;;;;;;;;;;8.03;100.00;99379.22;5053505;28;20008;-87
2023/07/18 18:32:32;;;;;;;;;;;;;;;7.97;100.00;99374.19;5057901;28;19916;-91
2023/07/18 18:34:57;;;;;;;;;;;;;;;8.15;100.00;99378.75;5056442;28;20453;-87
2023/07/18 18:37:23;;;;;;;;;;;;;;;8.24;100.00;99384.59;5056613;28;19925;-87
2023/07/18 18:39:48;;;;;;;;;;;;;;;8.17;100.00;99387.47;5062526;28;19917;-85
2023/07/18 18:42:13;;;;;;;;;;;;;;;8.14;100.00;99387.59;5061795;28;19916;-87
2023/07/18 18:44:38;;;;;;;;;;;;;;;8.19;100.00;99398.81;5062458;28;19977;-85
2023/07/18 18:47:05;;;;;;;;;;;;;;;8.13;100.00;99401.69;5062233;28;19917;-85
2023/07/18 18:49:31;;;;;;;;;;;;;;;8.24;100.00;99410.97;5058722;28;19939;-86
2023/07/18 18:51:56;;;;;;;;;;;;;;;8.21;100.00;99411.09;5059107;28;20037;-86
2023/07/18 18:54:22;;;;;;;;;;;;;;;8.21;100.00;99396.13;5036180;28;19921;-85
2023/07/18 18:56:47;;;;;;;;;;;;;;;8.11;100.00;99387.69;5061525;28;19928;-86
2023/07/18 18:59:12;;;;;;;;;;;;;;;8.19;100.00;99390.03;5061834;28;19920;-88
2023/07/18 19:01:42;;;;;;;;;;;;;;;8.22;100.00;99404.88;5064243;28;20371;-92
2023/07/18 19:04:07;;;;;;;;;;;;;;;10.64;100.00;99407.53;5061264;28;20268;-85
2023/07/18 19:06:32;;;;;;;;;;;;;;;8.31;100.00;99405.41;5060899;28;19936;-94
2023/07/18 19:08:58;;;;;;;;;;;;;;;7.60;100.00;99394.91;5061763;28;20353;-87
2023/07/18 19:11:23;;;;;;;;;;;;;;;7.34;100.00;99401.13;5062606;28;19975;-91
2023/07/18 19:14:04;;;;;;;;;;;;;;;7.10;100.00;99408.13;5041932;28;19916;-88
2023/07/18 19:16:29;;;;;;;;;;;;;;;6.93;100.00;99405.22;5060164;28;20011;-86
2023/07/18 19:18:54;;;;;;;;;;;;;;;6.91;100.00;99392.94;5061387;28;20023;-92
2023/07/18 19:21:20;;;;;;;;;;;;;;;6.74;100.00;99397.91;5063645;28;19923;-85
2023/07/18 19:23:45;;;;;;;;;;;;;;;6.67;100.00;99402.53;5065189;28;20014;-89
2023/07/18 19:26:11;;;;;;;;;;;;;;;6.65;100.00;99385.03;5065293;28;20359;-92
2023/07/18 19:28:38;;;;;;;;;;;;;;;6.50;100.00;99373.25;5046481;28;19920;-88
2023/07/18 19:31:04;;;;;;;;;;;;;;;6.55;100.00;99380.06;5069678;28;19916;-86
2023/07/18 19:33:35;;;;;;;;;;;;;;;6.52;100.00;99387.22;5067046;28;19939;-89
2023/07/18 19:36:00;;;;;;;;;;;;;;;6.43;100.00;99391.03;5064592;28;20276;-88
2023/07/18 19:38:25;;;;;;;;;;;;;;;6.45;100.00;99391.84;5065079;28;19928;-89
2023/07/18 19:40:51;;;;;;;;;;;;;;;6.42;100.00;99393.72;5064317;28;19921;-87
2023/07/18 19:43:54;;;;;;;;;;;;;;;6.29;100.00;99391.47;5065003;28;19917;-92
2023/07/18 19:46:19;;;;;;;;;;;;;;;6.32;100.00;99395.78;5064407;28;20012;-90
2023/07/18 19:48:45;;;;;;;;;;;;;;;6.25;100.00;99387.19;5064316;28;20051;-86
2023/07/18 19:51:10;;;;;;;;;;;;;;;6.19;100.00;99384.78;5050705;28;20402;-89
2023/07/18 19:53:36;;;;;;;;;;;;;;;6.21;100.00;99379.44;5065652;28;19974;-87
2023/07/18 19:56:02;;;;;;;;;;;;;;;6.17;100.00;99381.31;5047286;28;20306;-89
2023/07/18 19:58:28;;;;;;;;;;;;;;;6.16;100.00;99384.88;5048049;28;19916;-87
2023/07/18 20:00:54;;;;;;;;;;;;;;;6.11;100.00;99384.13;5065061;28;20005;-86
2023/07/18 20:03:19;;;;;;;;;;;;;;;6.11;100.00;99389.38;5061998;28;19916;-85
2023/07/18 20:05:45;;;;;;;;;;;;;;;5.92;100.00;99389.94;5046394;28;19935;-86
2023/07/18 20:08:10;;;;;;;;;;;;;;;5.97;100.00;99387.19;5064852;28;20026;-88
2023/07/18 20:10:35;;;;;;;;;;;;;;;5.95;100.00;99389.84;5064835;28;19927;-88
2023/07/18 20:13:00;;;;;;;;;;;;;;;5.90;100.00;99389.09;5045960;28;19916;-87
2023/07/18 20:15:27;;;;;;;;;;;;;;;5.97;100.00;99392.47;5062526;28;19974;-89
2023/07/18 20:17:55;;;;;;;;;;;;;;;5.92;100.00;99392.56;5063733;28;19921;-85
2023/07/18 20:20:20;;;;;;;;;;;;;;;5.92;100.00;99403.09;5046050;28;19924;-87
2023/07/18 20:22:46;;;;;;;;;;;;;;;5.94;100.00;99401.25;5063436;28;19916;-86
2023/07/18 20:25:11;;;;;;;;;;;;;;;6.05;100.00;99389.56;5046371;28;19939;-90